createdAt,value
2023-04-25T00:01:45.619Z,11.34
2023-04-25T00:06:47.553Z,11.23
2023-04-25T00:11:49.512Z,11.12
2023-04-25T00:16:52.799Z,11.09
2023-04-25T00:21:55.702Z,11.06
2023-04-25T00:26:57.523Z,10.92
2023-04-25T00:31:59.359Z,10.82
2023-04-25T00:37:03.077Z,10.68
2023-04-25T00:42:05.700Z,10.60
2023-04-25T00:47:08.404Z,10.58
2023-04-25T00:52:11.331Z,10.59
2023-04-25T00:57:13.114Z,10.57
2023-04-25T01:02:14.972Z,10.50
2023-04-25T01:07:17.321Z,10.45
2023-04-25T01:12:19.430Z,10.34
2023-04-25T01:17:22.210Z,10.23
2023-04-25T01:22:24.940Z,10.19
2023-04-25T01:27:27.615Z,10.15
2023-04-25T01:32:30.334Z,10.09
2023-04-25T01:37:32.118Z,10.06
2023-04-25T01:42:35.331Z,9.96
2023-04-25T01:47:38.913Z,9.87
2023-04-25T01:52:40.758Z,9.80
2023-04-25T01:57:43.725Z,9.75
2023-04-25T02:02:46.504Z,9.72
2023-04-25T02:08:00.029Z,9.68
2023-04-25T02:13:03.297Z,9.66
2023-04-25T02:18:19.589Z,9.59
2023-04-25T02:23:21.635Z,9.52
2023-04-25T02:28:24.863Z,9.50
2023-04-25T02:33:26.667Z,9.41
2023-04-25T02:38:28.452Z,9.45
2023-04-25T02:43:32.243Z,9.44
2023-04-25T02:48:33.981Z,9.33
2023-04-25T02:53:35.809Z,9.28
2023-04-25T02:58:37.785Z,9.24
2023-04-25T03:03:39.548Z,9.21
2023-04-25T03:08:41.534Z,9.24
2023-04-25T03:13:43.451Z,9.25
2023-04-25T03:18:45.806Z,9.22
2023-04-25T03:23:47.768Z,9.18
2023-04-25T03:28:49.997Z,9.20
2023-04-25T03:33:52.433Z,9.21
2023-04-25T03:38:55.495Z,9.17
2023-04-25T03:43:58.127Z,9.15
2023-04-25T03:49:00.438Z,9.11
2023-04-25T03:54:10.334Z,9.09
2023-04-25T03:59:15.096Z,9.04
2023-04-25T04:07:12.722Z,8.97
2023-04-25T04:12:17.362Z,8.96
2023-04-25T04:17:19.611Z,9.06
2023-04-25T04:22:21.591Z,9.20
2023-04-25T04:27:24.513Z,9.28
2023-04-25T04:32:38.839Z,9.37
2023-04-25T04:37:41.332Z,9.43
2023-04-25T04:42:49.140Z,9.47
2023-04-25T04:48:01.154Z,9.53
2023-04-25T04:53:23.725Z,9.59
2023-04-25T04:58:25.460Z,9.67
2023-04-25T05:03:38.162Z,9.74
2023-04-25T05:08:51.187Z,9.87
2023-04-25T05:14:13.382Z,9.97
2023-04-25T05:19:20.878Z,10.04
2023-04-25T05:24:36.278Z,10.07
2023-04-25T05:29:43.839Z,10.17
2023-04-25T05:35:01.969Z,10.19
2023-04-25T05:40:10.072Z,10.30
2023-04-25T05:45:11.803Z,10.43
2023-04-25T05:50:32.629Z,10.55
2023-04-25T05:55:54.303Z,10.61
2023-04-25T06:01:03.728Z,10.67
2023-04-25T06:06:06.178Z,10.68
2023-04-25T06:11:08.507Z,10.63
2023-04-25T06:16:10.847Z,10.62
2023-04-25T06:21:12.966Z,10.71
2023-04-25T06:26:14.681Z,10.82
2023-04-25T06:31:17.958Z,11.10
2023-04-25T06:36:25.894Z,11.39
2023-04-25T06:41:29.112Z,11.48
2023-04-25T06:46:35.198Z,11.66
2023-04-25T06:51:37.160Z,11.89
2023-04-25T06:56:39.046Z,12.03
2023-04-25T07:01:44.689Z,12.17
2023-04-25T07:06:52.110Z,12.30
2023-04-25T07:11:57.745Z,12.11
2023-04-25T07:16:59.589Z,12.12
2023-04-25T07:22:02.232Z,12.37
2023-04-25T07:27:04.847Z,12.57
2023-04-25T07:32:26.864Z,12.81
2023-04-25T07:37:29.748Z,13.19
2023-04-25T07:42:57.481Z,13.45
2023-04-25T07:48:19.589Z,13.66
2023-04-25T07:53:22.434Z,14.09
2023-04-25T07:58:31.122Z,14.71
2023-04-25T08:03:35.606Z,14.66
2023-04-25T08:08:39.413Z,14.45
2023-04-25T08:13:41.999Z,14.37
2023-04-25T08:18:44.781Z,14.52
2023-04-25T08:23:47.182Z,14.58
2023-04-25T08:28:56.978Z,14.75
2023-04-25T08:33:58.775Z,15.09
2023-04-25T08:39:06.580Z,15.24
2023-04-25T08:44:12.416Z,15.50
2023-04-25T08:49:14.676Z,15.45
2023-04-25T08:54:30.760Z,15.61
2023-04-25T08:59:39.395Z,15.53
2023-04-25T09:04:44.444Z,15.74
2023-04-25T09:09:46.374Z,15.59
2023-04-25T09:15:12.104Z,15.63
2023-04-25T09:20:25.979Z,15.64
2023-04-25T09:25:28.328Z,15.88
2023-04-25T09:30:31.901Z,16.02
2023-04-25T09:35:43.343Z,15.91
2023-04-25T09:40:50.757Z,16.14
2023-04-25T09:46:00.734Z,16.33
2023-04-25T09:51:17.093Z,16.41
2023-04-25T09:56:21.442Z,16.16
2023-04-25T10:01:25.305Z,16.36
2023-04-25T10:06:35.678Z,16.03
2023-04-25T10:11:38.925Z,16.03
2023-04-25T10:16:42.444Z,16.15
2023-04-25T10:22:18.375Z,16.32
2023-04-25T10:27:20.525Z,16.38
2023-04-25T10:32:22.365Z,16.02
2023-04-25T10:37:25.370Z,15.66
2023-04-25T10:42:27.418Z,15.36
2023-04-25T10:47:45.946Z,15.20
2023-04-25T10:52:47.784Z,15.21
2023-04-25T10:57:51.057Z,15.32
2023-04-25T11:02:54.883Z,15.53
2023-04-25T11:08:07.952Z,15.83
2023-04-25T11:13:10.396Z,15.89
2023-04-25T11:18:17.441Z,15.67
2023-04-25T11:23:19.451Z,15.11
2023-04-25T11:28:25.571Z,15.28
2023-04-25T11:33:29.325Z,15.32
2023-04-25T11:38:31.224Z,15.31
2023-04-25T11:43:33.317Z,14.79
2023-04-25T11:48:43.386Z,14.64
2023-04-25T11:53:48.240Z,14.55
2023-04-25T11:59:03.999Z,14.39
2023-04-25T12:04:14.787Z,14.16
2023-04-25T12:09:37.016Z,14.10
2023-04-25T12:14:38.690Z,14.03
2023-04-25T12:19:41.809Z,14.03
2023-04-25T12:24:46.185Z,14.03
2023-04-25T12:29:53.369Z,13.93
2023-04-25T12:34:55.577Z,14.12
2023-04-25T12:39:57.330Z,14.15
2023-04-25T12:44:58.992Z,14.28
2023-04-25T12:50:01.119Z,14.38
2023-04-25T12:55:02.952Z,14.53
2023-04-25T13:00:07.263Z,14.72
2023-04-25T13:05:12.238Z,14.87
2023-04-25T13:10:14.394Z,15.06
2023-04-25T13:15:16.786Z,15.35
2023-04-25T13:20:20.060Z,15.58
2023-04-25T13:25:22.862Z,16.14
2023-04-25T13:30:24.692Z,16.59
2023-04-25T13:35:26.887Z,16.49
2023-04-25T13:40:29.015Z,16.53
2023-04-25T13:45:33.299Z,16.49
2023-04-25T13:50:36.699Z,16.57
2023-04-25T13:55:38.480Z,17.12
2023-04-25T14:00:41.569Z,17.42
2023-04-25T14:05:43.255Z,17.50
2023-04-25T14:10:44.950Z,17.26
2023-04-25T14:15:46.803Z,16.63
2023-04-25T14:20:49.105Z,16.28
2023-04-25T14:25:51.036Z,16.22
2023-04-25T14:30:52.796Z,16.15
2023-04-25T14:35:54.784Z,16.41
2023-04-25T14:40:56.472Z,16.88
2023-04-25T14:45:58.625Z,17.33
2023-04-25T14:51:01.737Z,16.83
2023-04-25T14:56:04.032Z,16.19
2023-04-25T15:01:05.882Z,15.47
2023-04-25T15:06:07.949Z,14.93
2023-04-25T15:11:15.921Z,15.35
2023-04-25T15:16:17.694Z,15.59
2023-04-25T15:21:19.606Z,15.78
2023-04-25T15:26:21.271Z,15.96
2023-04-25T15:31:23.300Z,15.59
2023-04-25T15:36:25.230Z,15.26
2023-04-25T15:41:26.991Z,14.94
2023-04-25T15:46:31.363Z,14.86
2023-04-25T15:51:34.058Z,15.08
2023-04-25T15:56:35.978Z,15.26
2023-04-25T16:01:38.110Z,15.25
2023-04-25T16:06:40.152Z,15.08
2023-04-25T16:11:42.151Z,14.68
2023-04-25T16:16:44.955Z,14.23
2023-04-25T16:21:47.333Z,13.97
2023-04-25T16:26:49.044Z,14.01
2023-04-25T16:31:50.749Z,14.10
2023-04-25T16:36:54.429Z,14.21
2023-04-25T16:41:57.428Z,14.85
2023-04-25T16:46:59.263Z,15.56
2023-04-25T16:52:01.226Z,15.64
2023-04-25T16:57:04.595Z,14.90
2023-04-25T17:02:12.367Z,14.02
2023-04-25T17:07:14.364Z,13.21
2023-04-25T17:12:16.837Z,12.61
2023-04-25T17:17:18.954Z,12.27
2023-04-25T17:22:21.760Z,12.07
2023-04-25T17:27:23.589Z,11.91
2023-04-25T17:32:25.687Z,11.63
2023-04-25T17:37:28.881Z,11.35
2023-04-25T17:42:30.899Z,11.00
2023-04-25T17:47:32.954Z,10.66
2023-04-25T17:52:35.636Z,10.37
2023-04-25T17:57:37.572Z,10.28
2023-04-25T18:02:40.374Z,10.27
2023-04-25T18:07:42.423Z,10.24
2023-04-25T18:12:44.233Z,10.11
2023-04-25T18:17:46.209Z,9.92
2023-04-25T18:22:48.118Z,9.71
2023-04-25T18:27:51.228Z,9.49
2023-04-25T18:32:53.115Z,9.29
2023-04-25T18:37:54.980Z,9.15
2023-04-25T18:42:57.082Z,9.07
2023-04-25T18:48:00.524Z,9.02
2023-04-25T18:53:04.066Z,9.06
2023-04-25T18:58:07.699Z,9.05
2023-04-25T19:03:10.213Z,8.98
2023-04-25T19:08:12.016Z,8.90
2023-04-25T19:13:14.376Z,8.96
2023-04-25T19:18:16.321Z,8.98
2023-04-25T19:23:18.646Z,9.00
2023-04-25T19:28:20.613Z,9.00
2023-04-25T19:33:22.455Z,8.98
2023-04-25T19:38:24.563Z,9.04
2023-04-25T19:43:26.252Z,9.02
2023-04-25T19:48:28.015Z,9.00
2023-04-25T19:53:29.789Z,9.00
2023-04-25T19:58:32.389Z,9.03
2023-04-25T20:03:34.301Z,9.07
2023-04-25T20:08:36.854Z,9.07
2023-04-25T20:13:38.752Z,9.12
2023-04-25T20:18:41.576Z,9.15
2023-04-25T20:23:44.103Z,9.27
2023-04-25T20:28:46.341Z,9.37
2023-04-25T20:33:48.286Z,9.47
2023-04-25T20:38:50.260Z,9.49
2023-04-25T20:43:54.216Z,9.51
2023-04-25T20:48:56.708Z,9.53
2023-04-25T20:54:00.194Z,9.60
2023-04-25T20:59:01.879Z,9.58
2023-04-25T21:04:03.825Z,9.64
2023-04-25T21:09:07.664Z,9.67
2023-04-25T21:14:16.899Z,9.72
2023-04-25T21:19:18.788Z,9.76
2023-04-25T21:24:21.954Z,9.73
2023-04-25T21:29:23.813Z,9.61
2023-04-25T21:34:26.675Z,9.32
2023-04-25T21:39:30.885Z,9.08
2023-04-25T21:44:33.502Z,8.93
2023-04-25T21:50:00.594Z,8.69
2023-04-25T21:55:02.308Z,8.47
2023-04-25T22:00:20.153Z,8.33
2023-04-25T22:05:24.077Z,8.30
2023-04-25T22:10:25.989Z,8.24
2023-04-25T22:15:29.501Z,8.13
2023-04-25T22:20:32.001Z,8.04
2023-04-25T22:25:33.771Z,8.03
2023-04-25T22:30:37.222Z,8.05
2023-04-25T22:35:39.274Z,7.98
2023-04-25T22:40:41.083Z,7.82
2023-04-25T22:45:42.913Z,7.65
2023-04-25T22:50:45.486Z,7.47
2023-04-25T22:55:55.980Z,7.37
2023-04-25T23:00:57.709Z,7.39
2023-04-25T23:05:59.883Z,7.44
2023-04-25T23:11:07.871Z,7.47
2023-04-25T23:16:11.060Z,7.52
2023-04-25T23:21:13.470Z,7.61
2023-04-25T23:26:15.593Z,7.65
2023-04-25T23:31:17.748Z,7.72
2023-04-25T23:36:21.335Z,7.67
2023-04-25T23:41:25.522Z,7.62
2023-04-25T23:46:31.311Z,7.58
2023-04-25T23:51:36.450Z,7.51
2023-04-25T23:56:38.090Z,7.47
